Time;durP1;ratioP1;P1;durP2;ratioP2;P2;SDS_P1;SDS_P2;PMS_P1;PMS_P2;Temp;Humidity;BMP_temperature;BMP_pressure;BME280_temperature;BME280_humidity;BME280_pressure;Samples;Min_cycle;Max_cycle;Signal;HPM_P1;HPM_P2
2022/03/27 00:02:10;;;;;;;32.60;18.47;;;;;;;;;;5097999;28;20286;-77
2022/03/27 00:04:37;;;;;;;31.03;17.17;;;;;;;;;;5100607;28;20285;-77
2022/03/27 00:07:05;;;;;;;28.17;17.30;;;;;;;;;;5110517;28;20238;-77
2022/03/27 00:09:34;;;;;;;29.23;17.37;;;;;;;;;;5112094;28;20653;-77
2022/03/27 00:12:01;;;;;;;29.67;17.23;;;;;;;;;;5111397;28;20250;-77
2022/03/27 00:14:28;;;;;;;30.77;18.03;;;;;;;;;;5111872;28;20202;-77
2022/03/27 00:16:56;;;;;;;31.83;17.67;;;;;;;;;;5112211;28;20286;-77
2022/03/27 00:19:23;;;;;;;31.03;18.37;;;;;;;;;;5109351;28;20286;-78
2022/03/27 00:21:51;;;;;;;32.47;17.70;;;;;;;;;;5103983;28;20230;-77
2022/03/27 00:24:36;;;;;;;31.77;17.67;;;;;;;;;;5103611;28;20205;-77
2022/03/27 00:27:04;;;;;;;32.10;18.47;;;;;;;;;;5101347;28;20209;-77
2022/03/27 00:29:31;;;;;;;32.67;18.70;;;;;;;;;;5101987;28;20249;-77
2022/03/27 00:31:58;;;;;;;30.57;18.47;;;;;;;;;;5093966;28;20286;-77
2022/03/27 00:34:27;;;;;;;33.80;18.93;;;;;;;;;;5107634;28;20661;-77
2022/03/27 00:36:54;;;;;;;30.87;17.83;;;;;;;;;;5108967;28;20216;-77
2022/03/27 00:39:22;;;;;;;37.93;19.67;;;;;;;;;;5091238;28;20798;-77
2022/03/27 00:41:51;;;;;;;30.60;18.13;;;;;;;;;;5091856;28;20307;-77
2022/03/27 00:44:18;;;;;;;36.53;18.03;;;;;;;;;;5091906;28;20212;-77
2022/03/27 00:46:46;;;;;;;32.33;19.10;;;;;;;;;;5091566;28;20295;-77
2022/03/27 00:49:13;;;;;;;34.60;19.27;;;;;;;;;;5090995;28;20311;-77
2022/03/27 00:51:40;;;;;;;32.37;18.33;;;;;;;;;;5107332;28;20286;-77
2022/03/27 00:54:07;;;;;;;34.13;20.33;;;;;;;;;;5092107;28;20233;-77
2022/03/27 00:56:36;;;;;;;32.33;18.93;;;;;;;;;;5095218;28;20226;-78
2022/03/27 00:59:04;;;;;;;31.40;18.17;;;;;;;;;;5095169;28;20733;-77
2022/03/27 01:01:35;;;;;;;33.50;18.07;;;;;;;;;;5115510;28;20229;-76
2022/03/27 01:04:03;;;;;;;33.17;18.93;;;;;;;;;;5095461;28;20202;-78
2022/03/27 01:06:31;;;;;;;32.53;18.47;;;;;;;;;;5106853;28;20225;-77
2022/03/27 01:11:45;;;;;;;33.10;18.17;;;;;;;;;;5094595;28;20243;-77
2022/03/27 01:14:13;;;;;;;35.10;19.33;;;;;;;;;;5113694;28;20205;-77
2022/03/27 01:16:41;;;;;;;33.33;18.40;;;;;;;;;;5114464;28;20197;-77
2022/03/27 01:19:10;;;;;;;33.50;19.10;;;;;;;;;;5099981;28;20226;-77
2022/03/27 01:21:40;;;;;;;30.07;17.67;;;;;;;;;;5114157;28;20278;-77
2022/03/27 01:24:09;;;;;;;35.17;19.10;;;;;;;;;;5114916;28;20281;-77
2022/03/27 01:26:36;;;;;;;35.30;19.93;;;;;;;;;;5108956;28;20202;-75
2022/03/27 01:29:03;;;;;;;31.90;18.90;;;;;;;;;;5114893;28;20261;-78
2022/03/27 01:31:30;;;;;;;32.83;18.60;;;;;;;;;;5102179;28;20230;-77
2022/03/27 01:33:58;;;;;;;34.10;18.87;;;;;;;;;;5101542;28;20229;-77
2022/03/27 01:36:26;;;;;;;36.17;18.73;;;;;;;;;;5112972;28;20226;-77
2022/03/27 01:38:56;;;;;;;31.33;19.53;;;;;;;;;;5093913;28;20199;-77
2022/03/27 01:41:23;;;;;;;33.73;18.47;;;;;;;;;;5097040;28;20200;-78
2022/03/27 01:43:50;;;;;;;35.17;19.73;;;;;;;;;;5114941;28;20288;-77
2022/03/27 01:46:18;;;;;;;36.17;20.60;;;;;;;;;;5114531;28;20230;-77
2022/03/27 01:48:45;;;;;;;35.37;19.13;;;;;;;;;;5114632;28;20231;-77
2022/03/27 01:51:12;;;;;;;36.33;18.83;;;;;;;;;;5095871;28;20203;-77
2022/03/27 01:53:40;;;;;;;34.97;19.50;;;;;;;;;;5104060;28;20232;-77
2022/03/27 01:56:09;;;;;;;35.00;19.40;;;;;;;;;;5114661;28;20644;-77
2022/03/27 01:58:38;;;;;;;33.47;18.50;;;;;;;;;;5114585;28;20221;-77
2022/03/27 02:01:06;;;;;;;34.00;19.50;;;;;;;;;;5100413;28;20227;-77
2022/03/27 02:03:33;;;;;;;35.67;19.63;;;;;;;;;;5102649;28;20198;-77
2022/03/27 02:06:05;;;;;;;34.70;19.47;;;;;;;;;;5094317;28;20611;-77
2022/03/27 02:08:33;;;;;;;37.90;20.83;;;;;;;;;;5105812;28;20241;-77
2022/03/27 02:11:00;;;;;;;35.07;19.87;;;;;;;;;;5094927;28;20195;-77
2022/03/27 02:13:29;;;;;;;32.53;19.07;;;;;;;;;;5107240;28;20230;-77
2022/03/27 02:15:57;;;;;;;38.13;19.73;;;;;;;;;;5109040;28;20587;-78
2022/03/27 02:18:25;;;;;;;35.43;19.47;;;;;;;;;;5114093;28;20566;-77
2022/03/27 02:20:52;;;;;;;35.03;19.90;;;;;;;;;;5114128;28;20228;-77
2022/03/27 02:23:20;;;;;;;37.13;20.70;;;;;;;;;;5100289;28;20231;-77
2022/03/27 02:25:47;;;;;;;37.83;20.03;;;;;;;;;;5107782;28;20281;-76
2022/03/27 02:28:14;;;;;;;38.90;20.47;;;;;;;;;;5105957;28;20233;-77
2022/03/27 02:30:43;;;;;;;38.77;20.13;;;;;;;;;;5111232;28;20229;-77
2022/03/27 02:33:10;;;;;;;37.60;20.73;;;;;;;;;;5110939;28;20293;-77
2022/03/27 02:35:37;;;;;;;36.93;20.73;;;;;;;;;;5100492;28;20259;-77
2022/03/27 02:38:05;;;;;;;38.77;19.97;;;;;;;;;;5106886;28;20233;-77
2022/03/27 02:40:33;;;;;;;37.97;20.53;;;;;;;;;;5101946;28;20195;-78
2022/03/27 02:43:00;;;;;;;38.77;20.77;;;;;;;;;;5093622;28;20266;-77
2022/03/27 02:45:27;;;;;;;37.27;19.77;;;;;;;;;;5093083;28;20198;-77
2022/03/27 02:47:56;;;;;;;35.90;20.67;;;;;;;;;;5093086;28;20283;-77
2022/03/27 02:50:24;;;;;;;35.67;20.63;;;;;;;;;;5098061;28;20241;-77
2022/03/27 02:52:51;;;;;;;38.13;20.60;;;;;;;;;;5113249;28;20262;-77
2022/03/27 02:55:19;;;;;;;38.10;20.70;;;;;;;;;;5113788;28;20212;-77
2022/03/27 02:57:46;;;;;;;36.70;21.07;;;;;;;;;;5113331;28;20205;-77
2022/03/27 03:00:14;;;;;;;42.23;20.77;;;;;;;;;;5112874;28;20647;-77
2022/03/27 03:02:41;;;;;;;40.67;21.40;;;;;;;;;;5112490;28;20225;-77
2022/03/27 03:05:10;;;;;;;41.40;22.00;;;;;;;;;;5111148;28;20251;-77
2022/03/27 03:07:41;;;;;;;42.83;21.80;;;;;;;;;;5108736;28;20238;-77
2022/03/27 03:10:08;;;;;;;38.17;21.00;;;;;;;;;;5103958;28;20232;-77
2022/03/27 03:12:36;;;;;;;41.13;21.50;;;;;;;;;;5108043;28;20232;-77
2022/03/27 03:15:03;;;;;;;43.73;22.80;;;;;;;;;;5112462;28;20227;-77
2022/03/27 03:17:30;;;;;;;39.20;21.13;;;;;;;;;;5097663;28;20740;-77
2022/03/27 03:19:57;;;;;;;39.17;21.80;;;;;;;;;;5098997;28;20229;-77
2022/03/27 03:22:27;;;;;;;38.53;21.43;;;;;;;;;;5113366;28;20202;-77
2022/03/27 03:24:54;;;;;;;43.70;22.43;;;;;;;;;;5112554;28;20752;-77
2022/03/27 03:27:21;;;;;;;42.63;22.40;;;;;;;;;;5112567;28;20236;-77
2022/03/27 03:29:49;;;;;;;42.40;23.43;;;;;;;;;;5101552;28;20309;-77
2022/03/27 03:32:16;;;;;;;40.20;20.90;;;;;;;;;;5092638;28;20202;-78
2022/03/27 03:34:43;;;;;;;40.70;21.77;;;;;;;;;;5103124;28;20281;-77
2022/03/27 03:37:10;;;;;;;37.40;22.27;;;;;;;;;;5110126;28;20202;-77
2022/03/27 03:39:39;;;;;;;37.77;21.53;;;;;;;;;;5100261;28;20197;-77
2022/03/27 03:42:07;;;;;;;39.93;21.57;;;;;;;;;;5092121;28;20633;-78
2022/03/27 03:44:34;;;;;;;41.13;21.93;;;;;;;;;;5098606;28;20194;-77
2022/03/27 03:47:01;;;;;;;42.13;21.93;;;;;;;;;;5112745;28;20235;-77
2022/03/27 03:49:28;;;;;;;39.80;22.20;;;;;;;;;;5112089;28;20308;-77
2022/03/27 03:51:56;;;;;;;42.70;22.83;;;;;;;;;;5093423;28;20285;-77
2022/03/27 03:54:23;;;;;;;39.73;22.20;;;;;;;;;;5091847;28;20365;-76
2022/03/27 03:56:52;;;;;;;39.17;21.97;;;;;;;;;;5092035;28;20290;-77
2022/03/27 03:59:20;;;;;;;41.00;22.07;;;;;;;;;;5093447;28;20226;-77
2022/03/27 04:01:47;;;;;;;40.70;22.37;;;;;;;;;;5100665;28;20226;-77
2022/03/27 04:04:14;;;;;;;39.67;21.93;;;;;;;;;;5091372;28;20234;-78
2022/03/27 04:06:41;;;;;;;47.33;23.53;;;;;;;;;;5100009;28;20243;-77
2022/03/27 04:09:08;;;;;;;41.37;23.13;;;;;;;;;;5095332;28;20232;-78
2022/03/27 04:11:36;;;;;;;41.37;22.33;;;;;;;;;;5108002;28;20307;-78
2022/03/27 04:14:04;;;;;;;43.17;22.73;;;;;;;;;;5112477;28;20238;-78
2022/03/27 04:16:32;;;;;;;39.83;22.27;;;;;;;;;;5098242;28;20195;-78
2022/03/27 04:18:59;;;;;;;40.30;22.67;;;;;;;;;;5098976;28;20301;-78
2022/03/27 04:21:26;;;;;;;44.50;23.17;;;;;;;;;;5112364;28;20190;-77
2022/03/27 04:23:53;;;;;;;41.30;23.07;;;;;;;;;;5112406;28;20564;-78
2022/03/27 04:26:21;;;;;;;44.37;23.27;;;;;;;;;;5111966;28;20230;-79
2022/03/27 04:28:48;;;;;;;41.20;22.93;;;;;;;;;;5111637;28;20236;-75
2022/03/27 04:31:18;;;;;;;41.63;23.20;;;;;;;;;;5116061;28;20311;-77
2022/03/27 04:33:45;;;;;;;44.37;23.17;;;;;;;;;;5104475;28;20234;-77
2022/03/27 04:36:13;;;;;;;44.33;23.70;;;;;;;;;;5097060;28;20205;-78
2022/03/27 04:38:40;;;;;;;41.97;22.97;;;;;;;;;;5116367;28;20205;-78
2022/03/27 04:41:07;;;;;;;42.03;22.30;;;;;;;;;;5115728;28;20228;-78
2022/03/27 04:43:34;;;;;;;41.50;22.90;;;;;;;;;;5114794;28;20197;-78
2022/03/27 04:46:02;;;;;;;41.13;23.00;;;;;;;;;;5115269;28;20202;-77
2022/03/27 04:48:30;;;;;;;46.27;23.43;;;;;;;;;;5100052;28;20241;-78
2022/03/27 04:50:57;;;;;;;42.93;23.97;;;;;;;;;;5095118;28;20705;-77
2022/03/27 04:53:25;;;;;;;45.43;24.27;;;;;;;;;;5095477;28;20256;-77
2022/03/27 04:55:53;;;;;;;41.63;23.27;;;;;;;;;;5095916;28;20290;-78
2022/03/27 04:58:20;;;;;;;43.70;23.23;;;;;;;;;;5099197;28;20610;-77
2022/03/27 05:00:47;;;;;;;38.93;22.77;;;;;;;;;;5115159;28;20251;-77
2022/03/27 05:03:15;;;;;;;41.07;23.40;;;;;;;;;;5108365;28;20198;-78
2022/03/27 05:05:44;;;;;;;43.33;23.57;;;;;;;;;;5105979;28;20196;-78
2022/03/27 05:08:11;;;;;;;39.80;22.67;;;;;;;;;;5095038;28;20619;-77
2022/03/27 05:10:39;;;;;;;40.17;23.33;;;;;;;;;;5103682;28;20658;-77
2022/03/27 05:13:07;;;;;;;44.63;23.80;;;;;;;;;;5115477;28;20209;-77
2022/03/27 05:15:34;;;;;;;43.27;23.67;;;;;;;;;;5105675;28;20285;-77
2022/03/27 05:18:01;;;;;;;44.90;23.40;;;;;;;;;;5113289;28;20291;-77
2022/03/27 05:20:29;;;;;;;44.30;24.03;;;;;;;;;;5094583;28;20255;-77
2022/03/27 05:22:59;;;;;;;44.53;23.43;;;;;;;;;;5098890;28;20316;-77
2022/03/27 05:25:27;;;;;;;42.43;22.50;;;;;;;;;;5103977;28;20723;-77
2022/03/27 05:27:55;;;;;;;43.80;23.90;;;;;;;;;;5095061;28;20232;-77
2022/03/27 05:30:23;;;;;;;45.43;23.43;;;;;;;;;;5094042;28;20228;-78
2022/03/27 05:32:50;;;;;;;46.57;23.20;;;;;;;;;;5094619;28;20288;-78
2022/03/27 05:35:18;;;;;;;42.60;22.70;;;;;;;;;;5112174;28;20286;-77
2022/03/27 05:37:46;;;;;;;42.90;22.70;;;;;;;;;;5115061;28;20243;-77
2022/03/27 05:40:17;;;;;;;48.47;24.30;;;;;;;;;;5104002;28;20252;-78
2022/03/27 05:42:44;;;;;;;43.20;23.87;;;;;;;;;;5102001;28;20194;-77
2022/03/27 05:45:12;;;;;;;42.23;22.80;;;;;;;;;;5101883;28;20221;-77
2022/03/27 05:47:41;;;;;;;41.23;22.77;;;;;;;;;;5094571;28;20235;-78
2022/03/27 05:50:09;;;;;;;40.37;22.00;;;;;;;;;;5112745;28;20219;-77
2022/03/27 05:52:36;;;;;;;38.53;21.93;;;;;;;;;;5101880;28;20200;-77
2022/03/27 05:55:04;;;;;;;40.50;23.30;;;;;;;;;;5108395;28;20209;-77
2022/03/27 05:57:33;;;;;;;39.40;21.87;;;;;;;;;;5099383;28;20738;-77
2022/03/27 06:00:00;;;;;;;41.23;22.13;;;;;;;;;;5114672;28;20668;-77
2022/03/27 06:02:27;;;;;;;41.60;22.93;;;;;;;;;;5110057;28;20246;-77
2022/03/27 06:04:54;;;;;;;40.13;21.97;;;;;;;;;;5106651;28;20642;-77
2022/03/27 06:07:22;;;;;;;41.50;22.23;;;;;;;;;;5106695;28;20316;-78
2022/03/27 06:09:49;;;;;;;41.00;22.07;;;;;;;;;;5113188;28;20680;-77
2022/03/27 06:12:16;;;;;;;43.57;23.13;;;;;;;;;;5114951;28;20227;-78
2022/03/27 06:14:44;;;;;;;42.23;22.47;;;;;;;;;;5113381;28;20226;-77
2022/03/27 06:17:12;;;;;;;41.53;22.70;;;;;;;;;;5095075;28;20239;-77
2022/03/27 06:19:39;;;;;;;40.87;22.43;;;;;;;;;;5114077;28;20239;-77
2022/03/27 06:22:06;;;;;;;41.97;22.90;;;;;;;;;;5105791;28;20280;-77
2022/03/27 06:24:33;;;;;;;39.33;21.63;;;;;;;;;;5099202;28;20287;-78
2022/03/27 06:27:00;;;;;;;43.70;22.97;;;;;;;;;;5111999;28;20201;-78
2022/03/27 06:29:27;;;;;;;39.57;22.00;;;;;;;;;;5099538;28;20267;-77
2022/03/27 06:31:56;;;;;;;39.83;22.47;;;;;;;;;;5093098;28;20574;-78
2022/03/27 06:34:26;;;;;;;40.40;22.17;;;;;;;;;;5096931;28;20198;-77
2022/03/27 06:36:53;;;;;;;40.47;22.30;;;;;;;;;;5093763;28;20259;-78
2022/03/27 06:39:20;;;;;;;41.23;22.57;;;;;;;;;;5096035;28;20232;-77
2022/03/27 06:41:47;;;;;;;43.13;22.43;;;;;;;;;;5112990;28;20662;-78
2022/03/27 06:44:15;;;;;;;41.13;22.77;;;;;;;;;;5102042;28;20248;-78
2022/03/27 06:46:42;;;;;;;40.77;22.10;;;;;;;;;;5102648;28;20275;-78
2022/03/27 06:49:12;;;;;;;40.80;23.23;;;;;;;;;;5093562;28;20209;-78
2022/03/27 06:51:39;;;;;;;40.43;21.77;;;;;;;;;;5092307;28;20723;-78
2022/03/27 06:54:06;;;;;;;39.10;21.80;;;;;;;;;;5097168;28;20230;-78
2022/03/27 06:56:33;;;;;;;37.30;21.70;;;;;;;;;;5092350;28;20236;-79
2022/03/27 06:59:01;;;;;;;36.93;21.23;;;;;;;;;;5095163;28;20898;-78
2022/03/27 07:04:14;;;;;;;34.43;21.63;;;;;;;;;;5109928;28;20592;-78
2022/03/27 07:06:42;;;;;;;37.10;21.30;;;;;;;;;;5092947;28;20295;-78
2022/03/27 07:09:10;;;;;;;36.67;22.50;;;;;;;;;;5103130;28;20286;-79
2022/03/27 07:11:37;;;;;;;33.67;21.67;;;;;;;;;;5111315;28;20209;-76
2022/03/27 07:14:04;;;;;;;36.23;21.97;;;;;;;;;;5111293;28;20229;-78
2022/03/27 07:16:32;;;;;;;34.53;20.77;;;;;;;;;;5092973;28;20252;-76
2022/03/27 07:18:59;;;;;;;33.53;21.60;;;;;;;;;;5097312;28;20620;-79
2022/03/27 07:21:27;;;;;;;34.80;20.90;;;;;;;;;;5096120;28;20204;-76
2022/03/27 07:23:55;;;;;;;32.30;21.97;;;;;;;;;;5093124;28;20240;-78
2022/03/27 07:26:22;;;;;;;31.27;21.20;;;;;;;;;;5107570;28;20197;-78
2022/03/27 07:28:49;;;;;;;29.57;20.70;;;;;;;;;;5113275;28;20744;-77
2022/03/27 07:31:17;;;;;;;30.90;20.03;;;;;;;;;;5113007;28;20312;-76
2022/03/27 07:33:44;;;;;;;32.70;20.97;;;;;;;;;;5101873;28;20229;-77
2022/03/27 07:36:11;;;;;;;34.27;22.13;;;;;;;;;;5093141;28;20207;-77
2022/03/27 07:38:40;;;;;;;29.17;20.70;;;;;;;;;;5092689;28;20294;-76
2022/03/27 07:41:07;;;;;;;31.23;20.90;;;;;;;;;;5110212;28;20229;-76
2022/03/27 07:43:34;;;;;;;28.60;20.47;;;;;;;;;;5108986;28;20241;-79
2022/03/27 07:46:01;;;;;;;29.93;20.07;;;;;;;;;;5106642;28;20391;-76
2022/03/27 07:48:29;;;;;;;28.27;21.02;;;;;;;;;;5108903;28;20653;-77
2022/03/27 07:50:56;;;;;;;29.65;20.77;;;;;;;;;;5111806;28;20249;-77
2022/03/27 07:53:23;;;;;;;32.72;20.95;;;;;;;;;;5108327;28;20909;-77
2022/03/27 07:55:52;;;;;;;34.58;21.40;;;;;;;;;;5095197;28;20723;-76
2022/03/27 07:58:19;;;;;;;33.83;22.42;;;;;;;;;;5092598;28;20253;-77
2022/03/27 08:00:47;;;;;;;28.58;20.65;;;;;;;;;;5092647;28;20199;-77
2022/03/27 08:03:15;;;;;;;29.85;20.95;;;;;;;;;;5092389;28;20198;-77
2022/03/27 08:05:43;;;;;;;30.25;20.50;;;;;;;;;;5092955;28;20213;-77
2022/03/27 08:08:10;;;;;;;30.38;20.95;;;;;;;;;;5081603;28;20345;-77
2022/03/27 08:10:37;;;;;;;32.03;20.30;;;;;;;;;;5090297;28;20648;-77
2022/03/27 08:13:06;;;;;;;30.35;20.45;;;;;;;;;;5090750;28;20289;-78
2022/03/27 08:15:33;;;;;;;28.27;20.15;;;;;;;;;;5084820;28;20222;-79
2022/03/27 08:18:00;;;;;;;34.22;20.60;;;;;;;;;;5087487;28;20290;-77
2022/03/27 08:20:29;;;;;;;32.88;20.38;;;;;;;;;;5076748;28;20217;-78
2022/03/27 08:22:56;;;;;;;28.67;19.73;;;;;;;;;;5072970;28;20203;-77
2022/03/27 08:28:10;;;;;;;30.55;19.50;;;;;;;;;;5074460;28;20193;-78
2022/03/27 08:30:39;;;;;;;35.35;20.08;;;;;;;;;;5073780;28;20206;-78
2022/03/27 08:33:06;;;;;;;29.30;19.42;;;;;;;;;;5076507;28;20287;-78
2022/03/27 08:35:33;;;;;;;30.35;21.08;;;;;;;;;;5085253;28;20230;-78
2022/03/27 08:38:01;;;;;;;27.70;20.60;;;;;;;;;;5077400;28;20324;-78
2022/03/27 08:40:28;;;;;;;33.50;20.30;;;;;;;;;;5082558;28;20256;-78
2022/03/27 08:42:57;;;;;;;34.35;19.75;;;;;;;;;;5074994;28;20230;-78
2022/03/27 08:45:25;;;;;;;30.17;20.80;;;;;;;;;;5083079;28;20281;-78
2022/03/27 08:47:52;;;;;;;28.08;20.23;;;;;;;;;;5079520;28;20290;-78
2022/03/27 08:50:29;;;;;;;30.67;20.60;;;;;;;;;;5079930;28;20223;-78
2022/03/27 08:52:58;;;;;;;29.88;20.65;;;;;;;;;;5083492;28;20396;-78
2022/03/27 08:55:31;;;;;;;33.38;20.65;;;;;;;;;;5071413;28;20286;-78
2022/03/27 08:58:00;;;;;;;32.25;21.02;;;;;;;;;;5075794;28;20226;-77
2022/03/27 09:00:29;;;;;;;29.65;20.33;;;;;;;;;;5071378;28;20196;-77
2022/03/27 09:02:58;;;;;;;29.27;19.13;;;;;;;;;;5075735;28;20198;-79
2022/03/27 09:05:27;;;;;;;29.02;19.88;;;;;;;;;;5080097;28;20237;-79
2022/03/27 09:07:56;;;;;;;29.25;20.23;;;;;;;;;;5080810;28;20813;-77
2022/03/27 09:10:23;;;;;;;33.05;19.85;;;;;;;;;;5094902;28;20253;-79
2022/03/27 09:12:51;;;;;;;31.38;20.23;;;;;;;;;;5101627;28;20788;-78
2022/03/27 09:15:19;;;;;;;30.33;20.23;;;;;;;;;;5100380;28;20250;-82
2022/03/27 09:18:02;;;;;;;30.02;20.08;;;;;;;;;;5095425;28;20198;-79
2022/03/27 09:20:34;;;;;;;29.83;19.48;;;;;;;;;;5097652;28;20193;-78
2022/03/27 09:23:12;;;;;;;30.50;20.83;;;;;;;;;;5112129;28;20202;-78
2022/03/27 09:25:47;;;;;;;31.10;19.52;;;;;;;;;;5104165;28;20289;-78
2022/03/27 09:28:14;;;;;;;29.83;21.50;;;;;;;;;;5103601;28;20269;-77
2022/03/27 09:30:42;;;;;;;29.08;20.17;;;;;;;;;;5107772;28;20288;-78
2022/03/27 09:33:10;;;;;;;30.65;20.23;;;;;;;;;;5109006;28;20308;-78
2022/03/27 09:35:37;;;;;;;33.08;20.73;;;;;;;;;;5113167;28;20244;-78
2022/03/27 09:38:13;;;;;;;32.33;20.50;;;;;;;;;;5114240;28;20776;-78
2022/03/27 09:40:40;;;;;;;33.42;21.60;;;;;;;;;;5114787;28;20197;-78
2022/03/27 09:43:11;;;;;;;32.40;20.83;;;;;;;;;;5113905;28;20225;-78
2022/03/27 09:45:38;;;;;;;29.30;20.45;;;;;;;;;;5113815;28;20205;-79
2022/03/27 09:48:09;;;;;;;30.58;20.83;;;;;;;;;;5114062;28;20288;-78
2022/03/27 09:50:38;;;;;;;31.75;21.25;;;;;;;;;;5094106;28;20323;-78
2022/03/27 09:53:24;;;;;;;31.73;21.17;;;;;;;;;;5093893;28;20323;-78
2022/03/27 09:55:53;;;;;;;28.70;20.45;;;;;;;;;;5093616;28;20206;-79
2022/03/27 09:58:36;;;;;;;32.22;19.83;;;;;;;;;;5094508;28;20324;-78
2022/03/27 10:01:12;;;;;;;28.65;21.33;;;;;;;;;;5094733;28;20290;-78
2022/03/27 10:03:55;;;;;;;31.35;21.23;;;;;;;;;;5099966;28;20209;-79
2022/03/27 10:06:33;;;;;;;32.03;20.98;;;;;;;;;;5113658;28;20582;-78
2022/03/27 10:09:01;;;;;;;30.25;21.33;;;;;;;;;;5114063;28;20273;-79
2022/03/27 10:11:29;;;;;;;28.02;20.73;;;;;;;;;;5113942;28;20257;-78
2022/03/27 10:13:57;;;;;;;30.00;20.90;;;;;;;;;;5095687;28;20206;-78
2022/03/27 10:16:26;;;;;;;29.00;20.52;;;;;;;;;;5114123;28;20290;-78
2022/03/27 10:18:55;;;;;;;34.45;21.42;;;;;;;;;;5114251;28;20234;-78
2022/03/27 10:21:25;;;;;;;29.35;20.90;;;;;;;;;;5114117;28;20202;-79
2022/03/27 10:23:56;;;;;;;34.78;21.23;;;;;;;;;;5113844;28;20213;-78
2022/03/27 10:26:24;;;;;;;29.02;20.75;;;;;;;;;;5113919;28;20240;-79
2022/03/27 10:28:51;;;;;;;34.90;25.63;;;;;;;;;;5114020;28;20205;-78
2022/03/27 10:31:21;;;;;;;32.30;22.45;;;;;;;;;;5114163;28;20218;-78
2022/03/27 10:33:50;;;;;;;30.45;21.20;;;;;;;;;;5113719;28;20201;-78
2022/03/27 10:36:20;;;;;;;30.77;21.73;;;;;;;;;;5114001;28;20209;-79
2022/03/27 10:38:51;;;;;;;32.67;21.52;;;;;;;;;;5114037;28;20334;-78
2022/03/27 10:41:22;;;;;;;32.33;21.80;;;;;;;;;;5113873;28;20212;-79
2022/03/27 10:43:51;;;;;;;28.88;21.58;;;;;;;;;;5113416;28;20197;-79
2022/03/27 10:46:20;;;;;;;31.67;21.92;;;;;;;;;;5113903;28;20550;-79
2022/03/27 10:48:48;;;;;;;27.20;20.52;;;;;;;;;;5096068;28;20719;-78
2022/03/27 10:51:38;;;;;;;29.98;20.70;;;;;;;;;;5074942;28;20204;-79
2022/03/27 10:54:06;;;;;;;34.22;24.13;;;;;;;;;;5093095;28;20229;-79
2022/03/27 10:56:36;;;;;;;29.70;20.65;;;;;;;;;;5093520;28;20204;-78
2022/03/27 10:59:11;;;;;;;28.92;20.98;;;;;;;;;;5093275;28;20246;-78
2022/03/27 11:01:39;;;;;;;27.02;20.17;;;;;;;;;;5093163;28;20197;-79
2022/03/27 11:04:08;;;;;;;27.85;20.20;;;;;;;;;;5101577;28;20206;-78
2022/03/27 11:06:36;;;;;;;29.15;20.83;;;;;;;;;;5113507;28;20217;-79
2022/03/27 11:09:04;;;;;;;27.85;19.83;;;;;;;;;;5092526;28;20566;-78
2022/03/27 11:12:04;;;;;;;28.98;20.33;;;;;;;;;;5092780;28;20662;-79
2022/03/27 11:14:52;;;;;;;30.67;21.80;;;;;;;;;;5072510;28;20290;-79
2022/03/27 11:17:32;;;;;;;26.08;19.00;;;;;;;;;;5084592;28;20231;-79
2022/03/27 11:19:59;;;;;;;28.17;21.08;;;;;;;;;;5072504;28;20281;-79
2022/03/27 11:22:47;;;;;;;28.52;21.17;;;;;;;;;;5072727;28;20197;-78
2022/03/27 11:25:25;;;;;;;67.55;41.20;;;;;;;;;;5072701;28;20719;-78
2022/03/27 11:27:55;;;;;;;32.05;23.83;;;;;;;;;;5072641;28;20647;-78
2022/03/27 11:30:22;;;;;;;31.33;21.35;;;;;;;;;;5085052;28;20198;-78
2022/03/27 11:33:11;;;;;;;32.03;21.80;;;;;;;;;;5086507;28;20276;-79
2022/03/27 11:35:39;;;;;;;29.52;20.15;;;;;;;;;;5067507;28;20289;-79
2022/03/27 11:38:23;;;;;;;27.25;20.23;;;;;;;;;;5071657;28;20290;-78
2022/03/27 11:40:50;;;;;;;29.55;21.02;;;24.20;1.00;;;;;;5072278;28;20238;-79
2022/03/27 11:43:28;;;;;;;26.02;19.75;;;23.60;1.00;;;;;;5071953;28;20191;-79
2022/03/27 11:45:57;;;;;;;30.17;20.55;;;24.80;1.00;;;;;;5078722;28;20206;-78
2022/03/27 11:48:24;;;;;;;31.33;21.05;;;24.70;1.00;;;;;;5091985;28;20202;-79
2022/03/27 11:50:54;;;;;;;30.13;20.48;;;24.00;1.00;;;;;;5092866;28;20255;-79
2022/03/27 11:53:31;;;;;;;28.17;20.20;;;24.10;1.00;;;;;;5092029;28;20233;-78
2022/03/27 11:56:08;;;;;;;33.00;21.20;;;24.20;1.00;;;;;;5092283;28;20292;-78
2022/03/27 11:58:36;;;;;;;28.90;20.92;;;23.70;1.00;;;;;;5092260;28;20730;-79
2022/03/27 12:01:04;;;;;;;29.77;19.92;;;24.60;1.00;;;;;;5088525;28;20198;-79
2022/03/27 12:03:32;;;;;;;27.48;19.60;;;24.90;1.00;;;;;;5092253;28;20698;-79
2022/03/27 12:06:07;;;;;;;29.52;20.40;;;24.80;1.00;;;;;;5092333;28;20651;-79
2022/03/27 12:08:35;;;;;;;30.73;21.73;;;24.90;1.00;;;;;;5101098;28;20226;-79
2022/03/27 12:11:07;;;;;;;27.67;20.13;;;24.60;1.00;;;;;;5108611;28;20208;-78
2022/03/27 12:13:43;;;;;;;29.80;19.27;;;24.60;1.00;;;;;;5101442;28;20214;-78
2022/03/27 12:16:16;;;;;;;28.75;20.55;;;25.00;1.00;;;;;;5092676;28;20715;-78
2022/03/27 12:18:44;;;;;;;28.42;19.98;;;25.00;1.00;;;;;;5097305;28;20649;-78
2022/03/27 12:21:14;;;;;;;26.13;19.77;;;25.60;1.00;;;;;;5109444;28;20563;-79
2022/03/27 12:23:42;;;;;;;27.77;19.88;;;25.00;1.00;;;;;;5111938;28;20734;-78
2022/03/27 12:31:38;;;;;;;27.85;19.33;;;25.50;1.00;;;;;;5049077;28;20198;-79
2022/03/27 12:34:05;;;;;;;27.30;19.60;;;26.20;1.00;;;;;;5049083;28;20261;-79
2022/03/27 12:36:33;;;;;;;26.92;19.13;;;25.80;1.00;;;;;;5049451;28;20294;-78
2022/03/27 12:39:00;;;;;;;29.98;19.38;;;26.90;1.00;;;;;;5049295;28;20266;-79
2022/03/27 12:41:37;;;;;;;28.35;18.70;;;26.70;1.00;;;;;;5048750;28;20242;-78
2022/03/27 12:44:05;;;;;;;25.70;19.58;;;26.20;1.00;;;;;;5048873;28;20669;-78
2022/03/27 12:46:32;;;;;;;30.15;19.65;;;25.10;1.00;;;;;;5048689;28;20238;-79
2022/03/27 12:49:00;;;;;;;25.23;19.60;;;26.00;1.00;;;;;;5049339;28;20231;-78
2022/03/27 12:51:28;;;;;;;26.70;20.13;;;25.40;1.00;;;;;;5052077;28;20235;-78
2022/03/27 12:54:04;;;;;;;27.13;19.30;;;24.90;1.00;;;;;;5052771;28;20259;-78
2022/03/27 12:56:32;;;;;;;30.92;19.85;;;24.00;1.00;;;;;;5052782;28;20241;-78
2022/03/27 12:58:59;;;;;;;30.67;21.33;;;24.90;1.00;;;;;;5052209;28;20277;-78
2022/03/27 13:01:26;;;;;;;26.52;19.13;;;24.20;1.00;;;;;;5051799;28;20287;-79
2022/03/27 13:04:00;;;;;;;25.17;18.67;;;24.90;1.00;;;;;;5052539;28;20257;-78
2022/03/27 13:06:34;;;;;;;28.02;20.15;;;24.90;1.00;;;;;;5090206;28;20197;-78
2022/03/27 13:09:04;;;;;;;25.63;19.58;;;24.50;1.00;;;;;;5115612;28;20257;-78
2022/03/27 13:11:31;;;;;;;27.77;18.60;;;25.20;1.00;;;;;;5115615;28;20242;-78
2022/03/27 13:14:00;;;;;;;30.27;19.20;;;25.00;1.00;;;;;;5115026;28;20781;-78
2022/03/27 13:16:28;;;;;;;28.65;18.67;;;24.20;1.00;;;;;;5115106;28;20201;-78
2022/03/27 13:19:02;;;;;;;25.63;17.90;;;24.60;1.00;;;;;;5115829;28;20296;-78
2022/03/27 13:21:30;;;;;;;28.60;20.00;;;25.00;1.00;;;;;;5114364;28;20198;-78
2022/03/27 13:23:57;;;;;;;24.88;19.15;;;23.90;1.00;;;;;;5115564;28;20569;-78
2022/03/27 13:26:26;;;;;;;27.55;18.58;;;24.60;1.00;;;;;;5114941;28;20202;-78
2022/03/27 13:28:53;;;;;;;23.85;17.77;;;25.30;1.00;;;;;;5115058;28;20233;-78
2022/03/27 13:31:21;;;;;;;25.02;18.30;;;26.40;1.00;;;;;;5114982;28;20234;-78
2022/03/27 13:33:49;;;;;;;25.63;18.45;;;26.50;1.00;;;;;;5115077;28;20221;-79
2022/03/27 13:36:16;;;;;;;26.55;19.17;;;26.20;1.00;;;;;;5114898;28;20205;-79
2022/03/27 13:38:43;;;;;;;27.05;19.42;;;25.50;1.00;;;;;;5114670;28;20266;-78
2022/03/27 13:43:57;;;;;;;26.60;19.08;;;24.60;1.00;;;;;;5114407;28;20552;-78
2022/03/27 13:46:25;;;;;;;25.30;18.83;;;24.90;1.00;;;;;;5114638;28;20689;-78
2022/03/27 13:48:52;;;;;;;27.08;19.20;;;24.60;1.00;;;;;;5111362;28;20277;-78
2022/03/27 13:51:19;;;;;;;28.83;20.05;;;25.10;1.00;;;;;;5094532;28;20289;-78
2022/03/27 13:53:47;;;;;;;23.88;18.08;;;25.10;1.00;;;;;;5094417;28;20218;-78
2022/03/27 13:56:14;;;;;;;25.05;17.63;;;25.20;1.00;;;;;;5094361;28;20297;-78
2022/03/27 13:58:41;;;;;;;26.80;17.80;;;24.60;1.00;;;;;;5093929;28;20260;-78
2022/03/27 14:01:09;;;;;;;27.50;19.48;;;24.40;1.00;;;;;;5094113;28;20285;-79
2022/03/27 14:03:36;;;;;;;26.75;18.55;;;24.30;1.00;;;;;;5094005;28;20624;-78
2022/03/27 14:06:03;;;;;;;27.08;17.77;;;25.40;1.00;;;;;;5095582;28;20237;-78
2022/03/27 14:08:30;;;;;;;23.10;17.98;;;25.00;1.00;;;;;;5093436;28;20269;-77
2022/03/27 14:10:58;;;;;;;27.65;19.85;;;25.40;1.00;;;;;;5093912;28;20229;-78
2022/03/27 14:13:25;;;;;;;26.98;19.45;;;24.80;1.00;;;;;;5094075;28;20600;-78
2022/03/27 14:15:52;;;;;;;29.02;18.33;;;24.60;1.00;;;;;;5093738;28;20236;-78
2022/03/27 14:18:21;;;;;;;24.08;17.55;;;25.50;1.00;;;;;;5094217;28;20230;-78
2022/03/27 14:20:48;;;;;;;27.10;18.50;;;25.50;1.00;;;;;;5093503;28;20285;-78
2022/03/27 14:23:15;;;;;;;25.73;16.90;;;25.70;1.00;;;;;;5093589;28;20230;-78